Time;durP1;ratioP1;P1;durP2;ratioP2;P2;SDS_P1;SDS_P2;PMS_P1;PMS_P2;Temp;Humidity;BMP_temperature;BMP_pressure;BME280_temperature;BME280_humidity;BME280_pressure;Samples;Min_cycle;Max_cycle;Signal;HPM_P1;HPM_P2
2023/05/30 00:01:43;;;;;;;0.60;0.60;;;;;;;19.16;100.00;99919.56;5052561;28;20210;-72
2023/05/30 00:04:10;;;;;;;0.50;0.50;;;;;;;18.97;100.00;99905.13;5052392;28;20200;-72
2023/05/30 00:06:37;;;;;;;0.60;0.60;;;;;;;18.81;100.00;99891.44;5016977;28;20202;-71
2023/05/30 00:09:04;;;;;;;0.40;0.40;;;;;;;18.85;100.00;99924.63;5052522;28;20269;-72
2023/05/30 00:11:32;;;;;;;0.60;0.60;;;;;;;18.92;100.00;99918.34;5052106;28;20231;-71
2023/05/30 00:13:59;;;;;;;0.50;0.50;;;;;;;18.98;100.00;99918.22;5052384;28;20204;-71
2023/05/30 00:16:27;;;;;;;0.50;0.50;;;;;;;18.94;100.00;99929.69;5052131;28;20274;-71
2023/05/30 00:18:56;;;;;;;0.60;0.60;;;;;;;18.95;100.00;99943.69;5051988;28;20203;-72
2023/05/30 00:21:23;;;;;;;0.50;0.50;;;;;;;18.64;100.00;99906.69;5017872;28;20203;-71
2023/05/30 00:23:50;;;;;;;0.60;0.60;;;;;;;18.86;100.00;99934.25;5052165;28;20199;-71
2023/05/30 00:26:17;;;;;;;0.50;0.50;;;;;;;18.94;100.00;99942.00;5051967;28;20265;-71
2023/05/30 00:28:45;;;;;;;0.40;0.40;;;;;;;19.01;100.00;99939.19;5051440;28;20207;-72
2023/05/30 00:31:11;;;;;;;0.60;0.60;;;;;;;19.00;100.00;99929.56;5051121;28;20603;-72
2023/05/30 00:33:38;;;;;;;0.60;0.60;;;;;;;19.11;100.00;99945.97;5051434;28;20191;-70
2023/05/30 00:36:05;;;;;;;0.60;0.60;;;;;;;19.13;100.00;99933.66;5051620;28;20681;-71
2023/05/30 00:38:32;;;;;;;0.50;0.50;;;;;;;19.19;100.00;99930.03;5051211;28;20687;-71
2023/05/30 00:40:59;;;;;;;0.47;0.47;;;;;;;19.10;100.00;99915.34;5051232;28;21374;-71
2023/05/30 00:43:26;;;;;;;0.60;0.60;;;;;;;19.17;100.00;99935.31;5051491;28;20215;-71
2023/05/30 00:45:55;;;;;;;0.77;0.77;;;;;;;19.23;100.00;99940.44;5050764;28;20641;-71
2023/05/30 00:48:23;;;;;;;0.60;0.60;;;;;;;19.21;100.00;99944.88;5049674;28;20206;-71
2023/05/30 00:50:50;;;;;;;0.70;0.70;;;;;;;19.19;100.00;99954.53;5050449;28;20219;-70
2023/05/30 00:53:19;;;;;;;0.60;0.60;;;;;;;19.17;100.00;99955.47;5050572;28;20195;-71
2023/05/30 00:55:45;;;;;;;0.50;0.50;;;;;;;19.16;100.00;99962.50;5051214;28;20204;-71
2023/05/30 00:58:12;;;;;;;0.50;0.50;;;;;;;19.22;100.00;99953.63;5050513;28;20206;-71
2023/05/30 01:00:40;;;;;;;0.57;0.57;;;;;;;19.13;100.00;99954.69;5049318;28;20280;-71
2023/05/30 01:03:09;;;;;;;0.60;0.60;;;;;;;19.17;100.00;99939.72;5051181;28;20689;-71
2023/05/30 01:05:36;;;;;;;0.50;0.50;;;;;;;19.24;100.00;99949.19;5044909;28;20591;-71
2023/05/30 01:08:03;;;;;;;0.50;0.50;;;;;;;19.03;100.00;99926.00;5043323;28;20204;-71
2023/05/30 01:10:32;;;;;;;0.55;0.55;;;;;;;19.04;100.00;99933.88;5050867;28;20314;-71
2023/05/30 01:13:07;;;;;;;0.50;0.50;;;;;;;19.28;100.00;99941.22;5050868;28;20204;-71
2023/05/30 01:15:40;;;;;;;0.65;0.65;;;;;;;19.13;100.00;99949.44;5050251;28;20217;-71
2023/05/30 01:18:12;;;;;;;0.52;0.52;;;;;;;19.05;100.00;99953.97;5049829;28;20222;-70
2023/05/30 01:20:41;;;;;;;0.50;0.50;;;;;;;18.99;100.00;99951.50;5016229;28;20200;-71
2023/05/30 01:23:20;;;;;;;0.60;0.60;;;;;;;19.13;100.00;99944.16;5050500;28;20245;-71
2023/05/30 01:26:02;;;;;;;0.60;0.60;;;;;;;18.98;100.00;99960.25;5039317;28;20214;-71
2023/05/30 01:28:33;;;;;;;0.60;0.60;;;;;;;18.91;100.00;99952.53;5017342;28;20564;-71
2023/05/30 01:31:02;;;;;;;0.57;0.57;;;;;;;18.93;100.00;99956.88;5050672;28;20310;-71
2023/05/30 01:33:30;;;;;;;0.60;0.60;;;;;;;18.81;100.00;99955.38;5050525;28;20567;-71
2023/05/30 01:35:57;;;;;;;0.50;0.50;;;;;;;18.87;100.00;99946.47;5015989;28;20211;-70
2023/05/30 01:38:24;;;;;;;0.60;0.60;;;;;;;18.94;100.00;99947.25;5050917;28;20214;-71
2023/05/30 01:40:54;;;;;;;0.60;0.60;;;;;;;18.77;100.00;99953.69;5051362;28;20235;-71
2023/05/30 01:43:32;;;;;;;0.52;0.52;;;;;;;18.89;100.00;99951.72;5035135;28;20597;-71
2023/05/30 01:46:09;;;;;;;0.50;0.50;;;;;;;18.91;100.00;99953.41;5044622;28;20195;-71
2023/05/30 01:48:46;;;;;;;0.50;0.50;;;;;;;18.85;100.00;99956.16;5053839;28;20201;-71
2023/05/30 01:51:19;;;;;;;0.57;0.57;;;;;;;18.83;100.00;99966.69;5054089;28;20227;-70
2023/05/30 01:53:49;;;;;;;0.50;0.50;;;;;;;18.66;100.00;99939.03;5054643;28;20257;-71
2023/05/30 01:56:17;;;;;;;0.50;0.50;;;;;;;18.80;100.00;99969.38;5054017;28;20638;-71
2023/05/30 01:58:47;;;;;;;0.55;0.55;;;;;;;18.94;100.00;99969.09;5053709;28;20199;-72
2023/05/30 02:01:16;;;;;;;0.52;0.52;;;;;;;19.00;100.00;99968.13;5018765;28;20569;-71
2023/05/30 02:03:43;;;;;;;0.50;0.50;;;;;;;18.98;100.00;99957.63;5053825;28;20196;-72
2023/05/30 02:06:10;;;;;;;0.60;0.60;;;;;;;19.17;100.00;99974.75;5054176;28;20214;-71
2023/05/30 02:08:37;;;;;;;0.57;0.57;;;;;;;19.21;100.00;99984.31;5053152;28;20200;-72
2023/05/30 02:11:04;;;;;;;0.60;0.60;;;;;;;19.12;100.00;99952.09;5054013;28;20223;-72
2023/05/30 02:13:30;;;;;;;0.60;0.60;;;;;;;19.25;100.00;99970.19;5054079;28;20203;-72
2023/05/30 02:15:57;;;;;;;0.70;0.70;;;;;;;19.22;100.00;99954.50;5053807;28;20269;-72
2023/05/30 02:18:27;;;;;;;0.60;0.60;;;;;;;19.33;100.00;99977.06;5054128;28;20646;-71
2023/05/30 02:20:54;;;;;;;0.60;0.60;;;;;;;19.21;100.00;99973.78;5054212;28;20701;-72
2023/05/30 02:23:21;;;;;;;0.45;0.45;;;;;;;19.11;100.00;99976.66;5054149;28;20212;-71
2023/05/30 02:25:47;;;;;;;0.60;0.60;;;;;;;19.14;100.00;99982.72;5053558;28;20200;-71
2023/05/30 02:28:14;;;;;;;0.50;0.50;;;;;;;19.06;100.00;99974.13;5054127;28;20218;-71
2023/05/30 02:30:41;;;;;;;0.50;0.50;;;;;;;19.11;100.00;99984.53;5054170;28;20265;-71
2023/05/30 02:33:08;;;;;;;0.60;0.60;;;;;;;18.96;100.00;99962.06;5037835;28;20223;-71
2023/05/30 02:35:36;;;;;;;0.63;0.63;;;;;;;18.98;100.00;99973.41;5043184;28;20212;-71
2023/05/30 02:38:03;;;;;;;0.77;0.77;;;;;;;18.92;100.00;99960.41;5053950;28;20204;-71
2023/05/30 02:40:29;;;;;;;0.50;0.50;;;;;;;18.73;100.00;99932.75;5053523;28;20219;-71
2023/05/30 02:42:56;;;;;;;0.60;0.60;;;;;;;18.97;100.00;99969.06;5053699;28;20199;-71
2023/05/30 02:45:23;;;;;;;0.60;0.60;;;;;;;18.73;100.00;99949.41;5045833;28;20219;-71
2023/05/30 02:47:50;;;;;;;0.50;0.50;;;;;;;18.77;100.00;99961.56;5042861;28;20701;-71
2023/05/30 02:50:17;;;;;;;0.60;0.60;;;;;;;18.88;100.00;99974.50;5053626;28;20207;-71
2023/05/30 02:52:45;;;;;;;0.60;0.60;;;;;;;18.86;100.00;99975.44;5051200;28;20297;-71
2023/05/30 02:55:12;;;;;;;0.60;0.60;;;;;;;18.87;100.00;99977.16;5054367;28;20206;-70
2023/05/30 02:57:39;;;;;;;0.50;0.50;;;;;;;19.19;100.00;99946.66;5017919;28;20253;-69
2023/05/30 03:00:09;;;;;;;0.60;0.60;;;;;;;19.46;100.00;99952.22;5052567;28;20780;-72
2023/05/30 03:02:36;;;;;;;0.50;0.50;;;;;;;19.13;100.00;99973.09;5003047;28;20207;-71
2023/05/30 03:05:03;;;;;;;0.50;0.50;;;;;;;19.01;100.00;99969.88;5053086;28;20652;-71
2023/05/30 03:07:32;;;;;;;0.50;0.50;;;;;;;18.99;100.00;99987.41;5052960;28;20610;-71
2023/05/30 03:10:00;;;;;;;0.55;0.55;;;;;;;18.90;100.00;99972.72;5053218;28;20278;-72
2023/05/30 03:12:26;;;;;;;0.50;0.50;;;;;;;18.89;100.00;99980.63;5034075;28;20721;-72
2023/05/30 03:14:53;;;;;;;0.60;0.60;;;;;;;18.58;100.00;99906.84;5052835;28;20671;-70
2023/05/30 03:17:21;;;;;;;0.60;0.60;;;;;;;18.85;100.00;99960.56;5040111;28;20192;-70
2023/05/30 03:19:48;;;;;;;0.50;0.50;;;;;;;19.57;100.00;99940.56;5053000;28;20204;-78
2023/05/30 03:22:15;;;;;;;0.50;0.50;;;;;;;19.46;100.00;99957.50;5053027;28;20206;-70
2023/05/30 03:24:42;;;;;;;0.50;0.50;;;;;;;19.29;100.00;99971.00;5052613;28;20195;-70
2023/05/30 03:27:10;;;;;;;0.50;0.50;;;;;;;19.40;100.00;99983.91;5033751;28;20258;-70
2023/05/30 03:29:37;;;;;;;0.47;0.47;;;;;;;19.46;100.00;99989.91;5052950;28;20206;-71
2023/05/30 03:32:04;;;;;;;0.60;0.60;;;;;;;19.51;100.00;99990.66;5052961;28;20231;-72
2023/05/30 03:34:31;;;;;;;0.57;0.57;;;;;;;19.42;100.00;100000.53;5052291;28;20297;-69
2023/05/30 03:36:58;;;;;;;0.60;0.60;;;;;;;19.32;100.00;100002.47;5052150;28;20234;-69
2023/05/30 03:39:25;;;;;;;0.50;0.50;;;;;;;19.30;100.00;100004.25;5052777;28;20651;-70
2023/05/30 03:41:52;;;;;;;0.60;0.60;;;;;;;19.42;100.00;99998.78;5017532;28;20196;-70
2023/05/30 03:44:21;;;;;;;0.50;0.50;;;;;;;19.41;100.00;99977.72;5052295;28;20222;-70
2023/05/30 03:46:48;;;;;;;0.50;0.50;;;;;;;19.53;100.00;100009.06;5051891;28;20204;-70
2023/05/30 03:49:15;;;;;;;0.50;0.50;;;;;;;19.66;100.00;100014.00;5050093;28;20678;-71
2023/05/30 03:51:41;;;;;;;0.60;0.60;;;;;;;19.69;100.00;100020.97;5033610;28;20227;-71
2023/05/30 03:54:08;;;;;;;0.52;0.52;;;;;;;19.68;100.00;100016.59;5016651;28;20207;-69
2023/05/30 03:56:35;;;;;;;0.55;0.55;;;;;;;19.72;100.00;100020.91;5013426;28;20200;-70
2023/05/30 03:59:02;;;;;;;0.60;0.60;;;;;;;19.65;100.00;100007.03;5045675;28;20635;-70
2023/05/30 04:01:30;;;;;;;0.57;0.57;;;;;;;19.93;100.00;100030.91;5017495;28;20674;-71
2023/05/30 04:03:57;;;;;;;0.70;0.70;;;;;;;19.85;100.00;100040.75;5032305;28;20242;-70
2023/05/30 04:06:25;;;;;;;0.50;0.50;;;;;;;19.81;100.00;100039.09;5031879;28;20231;-72
2023/05/30 04:08:52;;;;;;;0.50;0.50;;;;;;;19.89;100.00;100012.59;5031969;28;20208;-72
2023/05/30 04:11:19;;;;;;;0.60;0.60;;;;;;;20.12;100.00;100012.91;5032066;28;20228;-72
2023/05/30 04:13:45;;;;;;;0.70;0.70;;;;;;;20.35;100.00;100041.31;5032386;28;20689;-72
2023/05/30 04:16:12;;;;;;;0.60;0.60;;;;;;;20.45;100.00;100042.81;5051685;28;20207;-70
2023/05/30 04:18:43;;;;;;;0.60;0.60;;;;;;;20.63;100.00;100052.88;5051649;28;20633;-72
2023/05/30 04:21:12;;;;;;;0.60;0.60;;;;;;;20.70;100.00;100059.69;5051775;28;20257;-71
2023/05/30 04:23:40;;;;;;;0.50;0.50;;;;;;;20.77;100.00;100058.63;5051561;28;20290;-71
2023/05/30 04:26:06;;;;;;;0.60;0.60;;;;;;;20.68;100.00;100049.22;5051620;28;20293;-71
2023/05/30 04:28:36;;;;;;;0.60;0.60;;;;;;;20.82;100.00;100059.38;5051026;28;20214;-71
2023/05/30 04:31:05;;;;;;;0.40;0.40;;;;;;;20.95;100.00;100054.63;5050914;28;20602;-71
2023/05/30 04:33:34;;;;;;;0.57;0.57;;;;;;;21.04;100.00;100055.25;5049280;28;20203;-71
2023/05/30 04:36:04;;;;;;;0.60;0.60;;;;;;;21.47;100.00;100069.88;5049707;28;20205;-71
2023/05/30 04:38:32;;;;;;;0.70;0.70;;;;;;;21.41;100.00;100063.00;5050575;28;20688;-71
2023/05/30 04:41:01;;;;;;;0.55;0.55;;;;;;;21.71;100.00;100090.25;5050442;28;20235;-71
2023/05/30 04:43:30;;;;;;;0.50;0.50;;;;;;;21.83;100.00;100094.31;5050865;28;20199;-70
2023/05/30 04:46:00;;;;;;;0.60;0.60;;;;;;;21.98;100.00;100102.63;5031451;28;20227;-71
2023/05/30 04:48:27;;;;;;;0.70;0.70;;;;;;;22.09;100.00;100103.16;5047864;28;20222;-71
2023/05/30 04:50:54;;;;;;;0.60;0.60;;;;;;;21.93;100.00;100051.75;5050717;28;20231;-76
2023/05/30 04:53:23;;;;;;;0.50;0.50;;;;;;;21.78;100.00;100007.31;5050975;28;20285;-77
2023/05/30 04:55:50;;;;;;;0.50;0.50;;;;;;;21.97;100.00;100024.34;5032232;28;20238;-76
2023/05/30 04:58:17;;;;;;;0.95;0.95;;;;;;;21.69;100.00;99944.25;5051525;28;20199;-77
2023/05/30 05:00:44;;;;;;;0.60;0.60;;;;;;;22.54;100.00;100090.25;5050960;28;20234;-72
2023/05/30 05:03:11;;;;;;;0.70;0.70;;;;;;;22.27;100.00;100107.00;5049791;28;20200;-72
2023/05/30 05:05:38;;;;;;;0.60;0.60;;;;;;;22.25;100.00;100085.06;5050187;28;20238;-72
2023/05/30 05:08:05;;;;;;;0.50;0.50;;;;;;;22.37;100.00;100103.13;5011495;28;20204;-73
2023/05/30 05:10:33;;;;;;;0.60;0.60;;;;;;;22.36;100.00;100100.56;5046597;28;20207;-74
2023/05/30 05:13:00;;;;;;;0.85;0.85;;;;;;;22.44;100.00;100088.81;5013804;28;20220;-71
2023/05/30 05:15:27;;;;;;;0.93;0.93;;;;;;;22.59;100.00;100103.28;5050869;28;20196;-72
2023/05/30 05:17:53;;;;;;;0.57;0.57;;;;;;;22.46;100.00;100112.53;5019448;28;20207;-73
2023/05/30 05:20:21;;;;;;;0.60;0.60;;;;;;;22.21;100.00;100112.47;5016602;28;20207;-71
2023/05/30 05:22:48;;;;;;;0.60;0.60;;;;;;;22.26;100.00;100109.69;5047126;28;20286;-72
2023/05/30 05:25:15;;;;;;;0.50;0.50;;;;;;;22.07;100.00;100077.72;5054349;28;20200;-73
2023/05/30 05:27:43;;;;;;;0.60;0.60;;;;;;;22.08;100.00;100121.72;5054354;28;20222;-76
2023/05/30 05:30:11;;;;;;;0.50;0.50;;;;;;;21.88;100.00;100124.91;5054476;28;20203;-73
2023/05/30 05:32:38;;;;;;;0.60;0.60;;;;;;;21.66;100.00;100126.47;5054537;28;20314;-72
2023/05/30 05:35:06;;;;;;;1.02;1.02;;;;;;;22.08;100.00;100119.06;5033929;28;20200;-72
2023/05/30 05:37:33;;;;;;;0.50;0.50;;;;;;;22.10;100.00;100135.72;5016082;28;20216;-71
2023/05/30 05:40:01;;;;;;;0.50;0.50;;;;;;;22.08;100.00;100138.41;5048937;28;20288;-71
2023/05/30 05:42:28;;;;;;;0.60;0.60;;;;;;;22.10;100.00;100135.72;5034399;28;20697;-71
2023/05/30 05:44:56;;;;;;;0.60;0.60;;;;;;;22.48;100.00;100134.50;5052734;28;20199;-72
2023/05/30 05:47:22;;;;;;;0.60;0.60;;;;;;;22.28;100.00;100124.59;5054627;28;20203;-72
2023/05/30 05:49:49;;;;;;;0.60;0.60;;;;;;;22.24;100.00;100113.25;5054254;28;20273;-69
2023/05/30 05:52:16;;;;;;;0.60;0.60;;;;;;;22.21;100.00;100129.19;5054256;28;20223;-74
2023/05/30 05:54:43;;;;;;;0.60;0.60;;;;;;;22.17;100.00;100105.56;5054202;28;20210;-75
2023/05/30 05:57:09;;;;;;;1.08;1.08;;;;;;;22.58;100.00;100143.88;5054591;28;20638;-74
2023/05/30 05:59:36;;;;;;;0.50;0.50;;;;;;;22.68;100.00;100121.53;5054308;28;20214;-76
2023/05/30 06:02:05;;;;;;;0.70;0.70;;;;;;;22.83;100.00;100139.50;5054224;28;20639;-75
2023/05/30 06:04:32;;;;;;;0.70;0.70;;;;;;;22.84;100.00;100146.50;5054082;28;20200;-76
2023/05/30 06:06:59;;;;;;;0.65;0.65;;;;;;;23.02;100.00;100145.03;5054020;28;20592;-76
2023/05/30 06:09:30;;;;;;;0.60;0.60;;;;;;;23.58;100.00;100145.69;5054087;28;20211;-74
2023/05/30 06:11:57;;;;;;;0.52;0.52;;;;;;;24.28;100.00;100174.78;5053980;28;20223;-75
2023/05/30 06:14:24;;;;;;;0.70;0.70;;;;;;;24.82;100.00;100174.34;5054052;28;20196;-76
2023/05/30 06:16:51;;;;;;;0.57;0.57;;;;;;;24.84;100.00;100170.72;5053801;28;20203;-74
2023/05/30 06:19:19;;;;;;;0.88;0.88;;;;;;;25.29;100.00;100177.66;5053826;28;20253;-75
2023/05/30 06:21:46;;;;;;;0.60;0.60;;;;;;;25.39;100.00;100181.63;5053528;28;20207;-75
2023/05/30 06:24:13;;;;;;;0.88;0.88;;;;;;;25.22;100.00;100184.16;5053754;28;20641;-75
2023/05/30 06:26:39;;;;;;;0.57;0.57;;;;;;;25.09;100.00;100186.47;5034668;28;20207;-76
2023/05/30 06:29:06;;;;;;;0.60;0.60;;;;;;;25.57;100.00;100199.44;5018200;28;20328;-75
2023/05/30 06:31:33;;;;;;;1.25;1.25;;;;;;;25.79;100.00;100194.84;5034888;28;20219;-75
2023/05/30 06:34:00;;;;;;;0.60;0.60;;;;;;;25.77;100.00;100190.56;5053443;28;20203;-75
2023/05/30 06:36:28;;;;;;;1.27;1.27;;;;;;;25.19;100.00;100182.47;5034982;28;20196;-76
2023/05/30 06:38:55;;;;;;;0.50;0.50;;;;;;;25.15;100.00;100187.06;5053434;28;20207;-74
2023/05/30 06:41:22;;;;;;;0.50;0.50;;;;;;;24.66;100.00;100187.34;5053521;28;20195;-76
2023/05/30 06:43:49;;;;;;;0.50;0.50;;;;;;;24.72;100.00;100186.25;5053410;28;20209;-75
2023/05/30 06:46:16;;;;;;;0.55;0.55;;;;;;;24.70;100.00;100170.41;5053327;28;20268;-76
2023/05/30 06:48:43;;;;;;;0.50;0.50;;;;;;;24.41;100.00;100117.69;5053378;28;20286;-75
2023/05/30 06:51:12;;;;;;;0.60;0.60;;;;;;;24.54;100.00;100177.28;5053401;28;20200;-76
2023/05/30 06:53:40;;;;;;;0.65;0.65;;;;;;;24.25;100.00;100169.63;5053393;28;20749;-77
2023/05/30 06:56:07;;;;;;;0.60;0.60;;;;;;;24.07;100.00;100163.22;5053585;28;20204;-75
2023/05/30 06:58:34;;;;;;;0.60;0.60;;;;;;;23.90;100.00;100168.31;5053248;28;20206;-76
2023/05/30 07:01:01;;;;;;;0.60;0.60;;;;;;;24.37;100.00;100182.34;5053259;28;20203;-77
2023/05/30 07:03:28;;;;;;;0.60;0.60;;;;;;;24.15;100.00;100180.56;5053130;28;20199;-74
2023/05/30 07:05:55;;;;;;;0.70;0.70;;;;;;;23.84;100.00;100173.81;5053403;28;20195;-73
2023/05/30 07:08:21;;;;;;;0.50;0.50;;;;;;;24.16;100.00;100177.00;5053115;28;20203;-74
2023/05/30 07:10:50;;;;;;;0.63;0.63;;;;;;;24.28;100.00;100180.97;5053108;28;20195;-75
2023/05/30 07:13:16;;;;;;;0.60;0.60;;;;;;;24.25;100.00;100177.56;5018175;28;20694;-75
2023/05/30 07:15:43;;;;;;;0.60;0.60;;;;;;;24.27;100.00;100184.53;5052920;28;20529;-75
2023/05/30 07:18:10;;;;;;;0.60;0.60;;;;;;;24.51;100.00;100177.38;5052962;28;20207;-75
2023/05/30 07:20:37;;;;;;;0.68;0.68;;;;;;;24.29;100.00;100177.41;5053063;28;20273;-75
2023/05/30 07:23:04;;;;;;;0.65;0.65;;;;;;;24.56;100.00;100180.72;5018163;28;20210;-74
2023/05/30 07:25:30;;;;;;;0.90;0.90;;;;;;;24.55;100.00;100176.31;5052813;28;20199;-74
2023/05/30 07:27:58;;;;;;;0.60;0.60;;;;;;;24.24;100.00;100141.38;5034195;28;20195;-75
2023/05/30 07:30:25;;;;;;;0.57;0.57;;;;;;;24.36;100.00;100170.06;5052762;28;20260;-75
2023/05/30 07:32:52;;;;;;;0.70;0.70;;;;;;;24.15;100.00;100177.06;5033929;28;20268;-74
2023/05/30 07:35:19;;;;;;;0.60;0.60;;;;;;;24.27;100.00;100178.34;5052799;28;20203;-75
2023/05/30 07:37:45;;;;;;;0.50;0.50;;;;;;;24.50;100.00;100183.63;5052636;28;20253;-75
2023/05/30 07:40:17;;;;;;;0.50;0.50;;;;;;;24.37;100.00;100162.03;5017085;28;20231;-74
2023/05/30 07:42:43;;;;;;;0.70;0.70;;;;;;;24.22;100.00;100132.63;5018706;28;20203;-74
2023/05/30 07:45:12;;;;;;;0.63;0.63;;;;;;;24.23;100.00;100129.03;5052379;28;20195;-75
2023/05/30 07:47:38;;;;;;;0.70;0.70;;;;;;;24.52;100.00;100168.50;5052534;28;20199;-73
2023/05/30 07:50:06;;;;;;;0.60;0.60;;;;;;;24.22;100.00;100185.63;5052346;28;20666;-74
2023/05/30 07:52:33;;;;;;;0.70;0.70;;;;;;;24.34;100.00;100185.13;5017494;28;20223;-74
2023/05/30 07:55:00;;;;;;;0.40;0.40;;;;;;;24.06;100.00;100162.34;5052262;28;20199;-73
2023/05/30 07:57:27;;;;;;;0.60;0.60;;;;;;;24.12;100.00;100180.66;5052164;28;20203;-74
2023/05/30 07:59:54;;;;;;;0.60;0.60;;;;;;;23.90;100.00;100178.91;5052122;28;20192;-74
2023/05/30 08:02:25;;;;;;;0.60;0.60;;;;;;;23.84;100.00;100182.63;5052230;28;20199;-74
2023/05/30 08:04:52;;;;;;;0.57;0.57;;;;;;;23.61;100.00;100174.69;5052316;28;20581;-74
2023/05/30 08:07:19;;;;;;;0.60;0.60;;;;;;;23.88;100.00;100178.06;5052065;28;20195;-74
2023/05/30 08:09:46;;;;;;;0.60;0.60;;;;;;;23.93;100.00;100147.88;5017107;28;20265;-75
2023/05/30 08:12:18;;;;;;;0.50;0.50;;;;;;;24.26;100.00;100177.47;5051765;28;20253;-74
2023/05/30 08:14:45;;;;;;;0.50;0.50;;;;;;;23.98;100.00;100172.38;5051865;28;20291;-74
2023/05/30 08:17:12;;;;;;;0.50;0.50;;;;;;;23.87;100.00;100157.81;5052004;28;20282;-74
2023/05/30 08:19:42;;;;;;;0.60;0.60;;;;;;;24.13;100.00;100170.94;5017268;28;20199;-75
2023/05/30 08:22:10;;;;;;;0.60;0.60;;;;;;;24.01;100.00;100172.25;5051850;28;20199;-74
2023/05/30 08:24:36;;;;;;;0.60;0.60;;;;;;;23.79;100.00;100167.84;5051824;28;20199;-75
2023/05/30 08:27:10;;;;;;;0.60;0.60;;;;;;;23.18;100.00;100078.31;5051554;28;20196;-74
2023/05/30 08:29:37;;;;;;;0.70;0.70;;;;;;;23.71;100.00;100144.28;5051620;28;20200;-74
2023/05/30 08:32:04;;;;;;;0.70;0.70;;;;;;;24.08;100.00;100160.50;5051592;28;20199;-75
2023/05/30 08:34:31;;;;;;;0.60;0.60;;;;;;;24.44;100.00;100159.97;5051333;28;20722;-75
2023/05/30 08:36:59;;;;;;;0.60;0.60;;;;;;;24.47;100.00;100138.69;5051463;28;20621;-74
2023/05/30 08:39:26;;;;;;;0.60;0.60;;;;;;;24.81;100.00;100184.09;5051245;28;20227;-74
2023/05/30 08:41:54;;;;;;;0.50;0.50;;;;;;;24.61;100.00;100181.41;5051435;28;20203;-74
2023/05/30 08:44:21;;;;;;;0.73;0.73;;;;;;;24.71;100.00;100180.09;5051568;28;20265;-74
2023/05/30 08:46:48;;;;;;;0.70;0.70;;;;;;;24.76;100.00;100159.53;5051448;28;20202;-73
2023/05/30 08:49:21;;;;;;;0.50;0.50;;;;;;;24.77;100.00;100179.81;5051326;28;20270;-74
2023/05/30 08:51:50;;;;;;;0.50;0.50;;;;;;;24.78;100.00;100170.94;5050720;28;20614;-75
2023/05/30 08:54:22;;;;;;;0.50;0.50;;;;;;;24.92;100.00;100158.00;5051508;28;20223;-75
2023/05/30 08:56:59;;;;;;;0.60;0.60;;;;;;;24.52;100.00;100126.06;5016487;28;20207;-74
2023/05/30 08:59:26;;;;;;;0.40;0.40;;;;;;;25.10;100.00;100178.44;5051245;28;20719;-74
2023/05/30 09:01:56;;;;;;;0.60;0.60;;;;;;;24.99;100.00;100186.00;5048895;28;20287;-74
2023/05/30 09:04:23;;;;;;;0.50;0.50;;;;;;;24.51;100.00;100180.03;5050722;28;20667;-74
2023/05/30 09:06:52;;;;;;;0.60;0.60;;;;;;;24.61;100.00;100189.34;5050917;28;20663;-74
2023/05/30 09:09:22;;;;;;;0.60;0.60;;;;;;;24.66;100.00;100177.63;5045729;28;20196;-75
2023/05/30 09:11:51;;;;;;;0.47;0.47;;;;;;;24.76;100.00;100191.34;5042989;28;20675;-74
2023/05/30 09:14:18;;;;;;;0.60;0.60;;;;;;;24.63;100.00;100163.63;5046419;28;20224;-75
2023/05/30 09:16:45;;;;;;;0.70;0.70;;;;;;;25.04;100.00;100178.69;5000493;28;20206;-74
2023/05/30 09:19:11;;;;;;;0.50;0.50;;;;;;;25.41;100.00;100177.09;5050570;28;20671;-72
2023/05/30 09:21:39;;;;;;;4.07;1.17;;;;;;;24.80;100.00;100168.22;5032369;28;20649;-72
2023/05/30 09:24:06;;;;;;;2.75;0.93;;;;;;;24.53;100.00;100128.69;5050742;28;20239;-73
2023/05/30 09:26:34;;;;;;;0.50;0.50;;;;;;;24.88;100.00;100177.63;5050585;28;20469;-72
2023/05/30 09:29:11;;;;;;;0.70;0.70;;;;;;;24.88;100.00;100158.19;5051068;28;20207;-72
2023/05/30 09:31:38;;;;;;;0.50;0.50;;;;;;;24.64;100.00;100183.91;5037420;28;20207;-72
2023/05/30 09:34:06;;;;;;;0.82;0.82;;;;;;;24.71;100.00;100184.53;5050907;28;20223;-73
2023/05/30 09:36:33;;;;;;;0.75;0.75;;;;;;;24.50;100.00;100179.19;5036715;28;20279;-73
2023/05/30 09:39:02;;;;;;;0.60;0.60;;;;;;;24.56;100.00;100165.66;5050651;28;20785;-72
2023/05/30 09:41:29;;;;;;;0.60;0.60;;;;;;;24.73;100.00;100175.56;5032452;28;20257;-72
2023/05/30 09:43:59;;;;;;;0.50;0.50;;;;;;;24.85;100.00;100153.03;5050651;28;20457;-79
2023/05/30 09:46:27;;;;;;;0.70;0.70;;;;;;;24.73;100.00;100167.63;5050942;28;20203;-73
2023/05/30 09:48:55;;;;;;;0.60;0.60;;;;;;;25.04;100.00;100170.72;5050671;28;20265;-70
2023/05/30 09:51:25;;;;;;;0.60;0.60;;;;;;;24.99;100.00;100148.84;5050450;28;20646;-72
2023/05/30 09:53:57;;;;;;;0.60;0.60;;;;;;;25.09;100.00;100154.63;5050447;28;20657;-72
2023/05/30 09:56:33;;;;;;;0.60;0.60;;;;;;;24.74;100.00;100089.78;5036473;28;20204;-72
2023/05/30 09:59:06;;;;;;;0.60;0.60;;;;;;;24.87;100.00;100116.66;5050697;28;20662;-72
2023/05/30 10:01:38;;;;;;;0.70;0.70;;;;;;;24.67;98.91;100106.88;5051263;28;20283;-73
2023/05/30 10:04:12;;;;;;;0.60;0.60;;;;;;;25.11;97.05;100172.19;5046939;28;20239;-72
2023/05/30 10:06:41;;;;;;;0.60;0.60;;;;;;;25.17;97.49;100174.59;5049368;28;20661;-71
2023/05/30 10:09:08;;;;;;;0.70;0.70;;;;;;;24.99;100.00;100138.25;5053934;28;20603;-71
2023/05/30 10:11:37;;;;;;;0.70;0.70;;;;;;;25.05;97.65;100145.06;5054000;28;20660;-71
2023/05/30 10:14:05;;;;;;;0.50;0.50;;;;;;;25.08;93.55;100164.38;5053793;28;20670;-71
2023/05/30 10:16:35;;;;;;;0.60;0.60;;;;;;;25.12;88.84;100171.28;5018894;28;20278;-71
2023/05/30 10:19:04;;;;;;;1.23;1.08;;;;;;;25.15;91.72;100163.16;5053729;28;20235;-71
2023/05/30 10:21:37;;;;;;;0.50;0.50;;;;;;;25.35;89.85;100177.38;5054063;28;20258;-72
2023/05/30 10:24:05;;;;;;;0.60;0.60;;;;;;;25.53;87.67;100165.97;5053900;28;20203;-72
2023/05/30 10:26:35;;;;;;;0.80;0.80;;;;;;;25.67;84.83;100171.53;5053881;28;20211;-70
2023/05/30 10:29:07;;;;;;;0.50;0.50;;;;;;;25.52;80.59;100154.50;5053449;28;20204;-70
2023/05/30 10:31:36;;;;;;;0.98;0.98;;;;;;;25.51;71.19;100147.44;5053561;28;20246;-72
2023/05/30 10:34:05;;;;;;;0.60;0.60;;;;;;;25.52;71.54;100145.66;5053526;28;20730;-72
2023/05/30 10:36:34;;;;;;;0.63;0.63;;;;;;;25.81;72.04;100177.06;5053442;28;20196;-69
2023/05/30 10:39:09;;;;;;;0.60;0.60;;;;;;;25.77;74.74;100148.91;5053383;28;20204;-70
2023/05/30 10:41:41;;;;;;;0.70;0.70;;;;;;;25.82;75.63;100170.84;5040789;28;20241;-75
2023/05/30 10:44:19;;;;;;;0.60;0.60;;;;;;;25.76;78.20;100115.31;5039293;28;20211;-72
2023/05/30 10:46:54;;;;;;;0.70;0.70;;;;;;;26.25;75.68;100168.84;5053593;28;20195;-72
2023/05/30 10:49:25;;;;;;;0.60;0.60;;;;;;;25.94;78.09;100081.69;5053538;28;20199;-71
2023/05/30 10:52:03;;;;;;;0.70;0.70;;;;;;;26.55;76.45;100167.34;5053898;28;20199;-72
2023/05/30 10:54:32;;;;;;;0.60;0.60;;;;;;;26.51;71.10;100152.47;5053332;28;20595;-71
2023/05/30 10:57:00;;;;;;;0.60;0.60;;;;;;;26.26;71.53;100146.63;5053359;28;20202;-72
2023/05/30 10:59:28;;;;;;;0.60;0.60;;;;;;;26.49;74.36;100149.03;5053355;28;20584;-72
2023/05/30 11:02:00;;;;;;;0.60;0.60;;;;;;;25.34;73.28;99997.78;5053401;28;20196;-71
2023/05/30 11:04:30;;;;;;;0.50;0.50;;;;;;;25.57;73.09;100088.75;5053232;28;20290;-71
2023/05/30 11:06:57;;;;;;;0.50;0.50;;;;;;;25.72;78.16;100142.94;5053282;28;20665;-71
2023/05/30 11:09:24;;;;;;;0.60;0.60;;;;;;;25.92;78.37;100144.69;5034569;28;20196;-70
2023/05/30 11:11:56;;;;;;;0.60;0.60;;;;;;;26.24;79.42;100137.88;5053348;28;20199;-71
2023/05/30 11:14:25;;;;;;;1.05;1.05;;;;;;;25.77;79.47;100132.97;5052506;28;20285;-72
2023/05/30 11:17:01;;;;;;;0.60;0.60;;;;;;;25.35;78.45;100076.50;5052928;28;20212;-71
2023/05/30 11:19:29;;;;;;;0.60;0.60;;;;;;;25.91;81.18;100133.19;5052987;28;20198;-71
2023/05/30 11:21:57;;;;;;;0.50;0.50;;;;;;;25.76;80.22;100096.72;5052840;28;20196;-72
2023/05/30 11:24:25;;;;;;;0.60;0.60;;;;;;;25.85;81.39;100083.00;5052848;28;20653;-72
2023/05/30 11:27:00;;;;;;;0.60;0.60;;;;;;;26.38;81.78;100120.31;5052831;28;20195;-72